sensor_id;sensor_type;location;lat;lon;timestamp;P1;durP1;ratioP1;P2;durP2;ratioP2
19446;SDS011;9862;49.462;11.054;2023-07-29T00:00:45;3.88;;;2.75;;
19446;SDS011;9862;49.462;11.054;2023-07-29T00:03:13;3.38;;;2.55;;
19446;SDS011;9862;49.462;11.054;2023-07-29T00:05:40;4.60;;;2.80;;
19446;SDS011;9862;49.462;11.054;2023-07-29T00:08:07;4.43;;;2.97;;
19446;SDS011;9862;49.462;11.054;2023-07-29T00:10:36;3.67;;;2.40;;
19446;SDS011;9862;49.462;11.054;2023-07-29T00:13:04;3.20;;;2.42;;
19446;SDS011;9862;49.462;11.054;2023-07-29T00:15:31;3.15;;;2.63;;
19446;SDS011;9862;49.462;11.054;2023-07-29T00:17:58;5.78;;;2.67;;
19446;SDS011;9862;49.462;11.054;2023-07-29T00:20:25;4.65;;;2.35;;
19446;SDS011;9862;49.462;11.054;2023-07-29T00:22:52;3.58;;;2.65;;
19446;SDS011;9862;49.462;11.054;2023-07-29T00:25:20;3.25;;;2.42;;
19446;SDS011;9862;49.462;11.054;2023-07-29T00:27:49;3.80;;;3.13;;
19446;SDS011;9862;49.462;11.054;2023-07-29T00:30:18;3.35;;;2.58;;
19446;SDS011;9862;49.462;11.054;2023-07-29T00:32:45;2.83;;;2.20;;
19446;SDS011;9862;49.462;11.054;2023-07-29T00:35:12;2.60;;;2.20;;
19446;SDS011;9862;49.462;11.054;2023-07-29T00:37:39;2.75;;;2.45;;
19446;SDS011;9862;49.462;11.054;2023-07-29T00:40:09;3.47;;;2.90;;
19446;SDS011;9862;49.462;11.054;2023-07-29T00:42:41;4.15;;;2.92;;
19446;SDS011;9862;49.462;11.054;2023-07-29T00:45:10;4.18;;;3.17;;
19446;SDS011;9862;49.462;11.054;2023-07-29T00:47:37;5.40;;;3.58;;
19446;SDS011;9862;49.462;11.054;2023-07-29T00:50:05;4.40;;;2.97;;
19446;SDS011;9862;49.462;11.054;2023-07-29T00:52:33;4.93;;;2.92;;
19446;SDS011;9862;49.462;11.054;2023-07-29T00:55:00;4.53;;;3.10;;
19446;SDS011;9862;49.462;11.054;2023-07-29T00:57:27;4.93;;;3.25;;
19446;SDS011;9862;49.462;11.054;2023-07-29T00:59:56;3.50;;;3.13;;
19446;SDS011;9862;49.462;11.054;2023-07-29T01:02:24;5.75;;;3.00;;
19446;SDS011;9862;49.462;11.054;2023-07-29T01:04:52;4.25;;;3.15;;
19446;SDS011;9862;49.462;11.054;2023-07-29T01:07:21;7.93;;;3.00;;
19446;SDS011;9862;49.462;11.054;2023-07-29T01:09:55;3.42;;;2.85;;
19446;SDS011;9862;49.462;11.054;2023-07-29T01:12:30;4.72;;;2.95;;
19446;SDS011;9862;49.462;11.054;2023-07-29T01:15:06;4.57;;;3.42;;
19446;SDS011;9862;49.462;11.054;2023-07-29T01:17:41;3.65;;;3.10;;
19446;SDS011;9862;49.462;11.054;2023-07-29T01:20:10;3.30;;;2.90;;
19446;SDS011;9862;49.462;11.054;2023-07-29T01:22:40;5.40;;;3.35;;
19446;SDS011;9862;49.462;11.054;2023-07-29T01:25:09;3.97;;;3.17;;
19446;SDS011;9862;49.462;11.054;2023-07-29T01:27:37;4.45;;;3.50;;
19446;SDS011;9862;49.462;11.054;2023-07-29T01:30:05;4.72;;;3.08;;
19446;SDS011;9862;49.462;11.054;2023-07-29T01:32:35;4.43;;;3.13;;
19446;SDS011;9862;49.462;11.054;2023-07-29T01:35:10;4.25;;;3.00;;
19446;SDS011;9862;49.462;11.054;2023-07-29T01:37:47;5.07;;;2.80;;
19446;SDS011;9862;49.462;11.054;2023-07-29T01:40:18;3.70;;;2.70;;
19446;SDS011;9862;49.462;11.054;2023-07-29T01:42:49;3.45;;;3.05;;
19446;SDS011;9862;49.462;11.054;2023-07-29T01:45:16;3.90;;;2.90;;
19446;SDS011;9862;49.462;11.054;2023-07-29T01:47:43;3.67;;;3.17;;
19446;SDS011;9862;49.462;11.054;2023-07-29T01:50:10;3.40;;;2.83;;
19446;SDS011;9862;49.462;11.054;2023-07-29T01:52:37;4.05;;;3.08;;
19446;SDS011;9862;49.462;11.054;2023-07-29T01:55:05;4.78;;;2.97;;
19446;SDS011;9862;49.462;11.054;2023-07-29T01:57:33;4.75;;;2.85;;
19446;SDS011;9862;49.462;11.054;2023-07-29T02:00:00;4.60;;;3.22;;
19446;SDS011;9862;49.462;11.054;2023-07-29T02:02:27;4.82;;;3.47;;
19446;SDS011;9862;49.462;11.054;2023-07-29T02:04:54;4.13;;;3.00;;
19446;SDS011;9862;49.462;11.054;2023-07-29T02:07:21;4.03;;;2.95;;
19446;SDS011;9862;49.462;11.054;2023-07-29T02:09:51;3.28;;;2.70;;
19446;SDS011;9862;49.462;11.054;2023-07-29T02:12:18;4.95;;;3.13;;
19446;SDS011;9862;49.462;11.054;2023-07-29T02:14:48;5.88;;;3.45;;
19446;SDS011;9862;49.462;11.054;2023-07-29T02:17:15;3.38;;;3.08;;
19446;SDS011;9862;49.462;11.054;2023-07-29T02:19:42;5.43;;;3.47;;
19446;SDS011;9862;49.462;11.054;2023-07-29T02:22:10;5.40;;;3.20;;
19446;SDS011;9862;49.462;11.054;2023-07-29T02:24:39;4.15;;;3.28;;
19446;SDS011;9862;49.462;11.054;2023-07-29T02:27:08;4.70;;;3.60;;
19446;SDS011;9862;49.462;11.054;2023-07-29T02:29:35;4.80;;;3.15;;
19446;SDS011;9862;49.462;11.054;2023-07-29T02:32:05;5.00;;;4.05;;
19446;SDS011;9862;49.462;11.054;2023-07-29T02:34:39;3.90;;;3.22;;
19446;SDS011;9862;49.462;11.054;2023-07-29T02:37:06;4.80;;;3.22;;
19446;SDS011;9862;49.462;11.054;2023-07-29T02:39:34;5.97;;;3.45;;
19446;SDS011;9862;49.462;11.054;2023-07-29T02:42:01;4.03;;;3.38;;
19446;SDS011;9862;49.462;11.054;2023-07-29T02:44:28;4.72;;;3.38;;
19446;SDS011;9862;49.462;11.054;2023-07-29T02:46:55;4.32;;;3.03;;
19446;SDS011;9862;49.462;11.054;2023-07-29T02:49:24;4.57;;;3.38;;
19446;SDS011;9862;49.462;11.054;2023-07-29T02:51:50;6.10;;;3.60;;
19446;SDS011;9862;49.462;11.054;2023-07-29T02:54:17;3.67;;;3.03;;
19446;SDS011;9862;49.462;11.054;2023-07-29T02:56:45;3.85;;;3.35;;
19446;SDS011;9862;49.462;11.054;2023-07-29T02:59:12;3.88;;;2.97;;
19446;SDS011;9862;49.462;11.054;2023-07-29T03:01:38;4.10;;;3.60;;
19446;SDS011;9862;49.462;11.054;2023-07-29T03:04:05;4.07;;;3.08;;
19446;SDS011;9862;49.462;11.054;2023-07-29T03:06:35;3.85;;;3.30;;
19446;SDS011;9862;49.462;11.054;2023-07-29T03:09:02;4.40;;;3.40;;
19446;SDS011;9862;49.462;11.054;2023-07-29T03:11:30;4.15;;;3.42;;
19446;SDS011;9862;49.462;11.054;2023-07-29T03:13:57;5.75;;;3.75;;
19446;SDS011;9862;49.462;11.054;2023-07-29T03:16:24;4.78;;;4.18;;
19446;SDS011;9862;49.462;11.054;2023-07-29T03:18:51;5.25;;;3.63;;
19446;SDS011;9862;49.462;11.054;2023-07-29T03:21:17;4.82;;;3.33;;
19446;SDS011;9862;49.462;11.054;2023-07-29T03:23:46;5.22;;;3.20;;
19446;SDS011;9862;49.462;11.054;2023-07-29T03:26:14;4.43;;;3.50;;
19446;SDS011;9862;49.462;11.054;2023-07-29T03:28:42;5.63;;;3.75;;
19446;SDS011;9862;49.462;11.054;2023-07-29T03:31:09;4.57;;;3.42;;
19446;SDS011;9862;49.462;11.054;2023-07-29T03:33:37;6.75;;;4.18;;
19446;SDS011;9862;49.462;11.054;2023-07-29T03:36:04;4.30;;;3.75;;
19446;SDS011;9862;49.462;11.054;2023-07-29T03:38:31;4.97;;;4.13;;
19446;SDS011;9862;49.462;11.054;2023-07-29T03:41:01;6.57;;;4.55;;
19446;SDS011;9862;49.462;11.054;2023-07-29T03:43:28;5.53;;;4.50;;
19446;SDS011;9862;49.462;11.054;2023-07-29T03:45:55;7.68;;;4.75;;
19446;SDS011;9862;49.462;11.054;2023-07-29T03:48:22;4.68;;;4.15;;
19446;SDS011;9862;49.462;11.054;2023-07-29T03:50:49;4.90;;;4.15;;
19446;SDS011;9862;49.462;11.054;2023-07-29T03:53:15;5.20;;;3.92;;
19446;SDS011;9862;49.462;11.054;2023-07-29T03:55:42;4.97;;;4.28;;
19446;SDS011;9862;49.462;11.054;2023-07-29T03:58:11;5.75;;;3.83;;
19446;SDS011;9862;49.462;11.054;2023-07-29T04:00:38;5.30;;;3.70;;
19446;SDS011;9862;49.462;11.054;2023-07-29T04:03:06;6.45;;;3.85;;
19446;SDS011;9862;49.462;11.054;2023-07-29T04:05:32;4.72;;;3.45;;
19446;SDS011;9862;49.462;11.054;2023-07-29T04:07:59;5.32;;;4.07;;
19446;SDS011;9862;49.462;11.054;2023-07-29T04:10:26;5.20;;;3.50;;
19446;SDS011;9862;49.462;11.054;2023-07-29T04:12:53;6.05;;;3.78;;
19446;SDS011;9862;49.462;11.054;2023-07-29T04:15:21;6.50;;;3.72;;
19446;SDS011;9862;49.462;11.054;2023-07-29T04:17:48;4.00;;;3.20;;
19446;SDS011;9862;49.462;11.054;2023-07-29T04:20:15;4.20;;;3.58;;
19446;SDS011;9862;49.462;11.054;2023-07-29T04:22:42;5.20;;;3.35;;
19446;SDS011;9862;49.462;11.054;2023-07-29T04:25:09;4.05;;;3.38;;
19446;SDS011;9862;49.462;11.054;2023-07-29T04:27:36;4.35;;;3.45;;
19446;SDS011;9862;49.462;11.054;2023-07-29T04:30:03;4.82;;;3.25;;
19446;SDS011;9862;49.462;11.054;2023-07-29T04:32:33;4.75;;;3.15;;
19446;SDS011;9862;49.462;11.054;2023-07-29T04:35:00;5.00;;;3.40;;
19446;SDS011;9862;49.462;11.054;2023-07-29T04:37:27;5.10;;;3.40;;
19446;SDS011;9862;49.462;11.054;2023-07-29T04:39:54;4.82;;;3.83;;
19446;SDS011;9862;49.462;11.054;2023-07-29T04:42:21;4.75;;;3.40;;
19446;SDS011;9862;49.462;11.054;2023-07-29T04:44:48;5.80;;;3.33;;
19446;SDS011;9862;49.462;11.054;2023-07-29T04:47:16;4.82;;;3.40;;
19446;SDS011;9862;49.462;11.054;2023-07-29T04:49:44;6.32;;;3.42;;
19446;SDS011;9862;49.462;11.054;2023-07-29T04:52:12;3.03;;;2.72;;
19446;SDS011;9862;49.462;11.054;2023-07-29T04:54:40;4.60;;;3.30;;
19446;SDS011;9862;49.462;11.054;2023-07-29T04:57:08;4.32;;;3.30;;
19446;SDS011;9862;49.462;11.054;2023-07-29T04:59:35;5.10;;;3.10;;
19446;SDS011;9862;49.462;11.054;2023-07-29T05:02:02;9.93;;;6.90;;
19446;SDS011;9862;49.462;11.054;2023-07-29T05:04:29;7.45;;;4.47;;
19446;SDS011;9862;49.462;11.054;2023-07-29T05:06:57;6.20;;;4.30;;
19446;SDS011;9862;49.462;11.054;2023-07-29T05:09:24;4.35;;;3.03;;
19446;SDS011;9862;49.462;11.054;2023-07-29T05:11:51;6.20;;;4.10;;
19446;SDS011;9862;49.462;11.054;2023-07-29T05:14:18;7.30;;;4.93;;
19446;SDS011;9862;49.462;11.054;2023-07-29T05:16:45;7.45;;;5.22;;
19446;SDS011;9862;49.462;11.054;2023-07-29T05:19:13;4.57;;;3.35;;
19446;SDS011;9862;49.462;11.054;2023-07-29T05:21:39;4.05;;;2.70;;
19446;SDS011;9862;49.462;11.054;2023-07-29T05:24:09;3.22;;;2.78;;
19446;SDS011;9862;49.462;11.054;2023-07-29T05:26:36;4.45;;;2.95;;
19446;SDS011;9862;49.462;11.054;2023-07-29T05:29:03;3.35;;;2.40;;
19446;SDS011;9862;49.462;11.054;2023-07-29T05:31:30;3.70;;;2.42;;
19446;SDS011;9862;49.462;11.054;2023-07-29T05:33:57;3.97;;;2.47;;
19446;SDS011;9862;49.462;11.054;2023-07-29T05:36:25;2.58;;;2.33;;
19446;SDS011;9862;49.462;11.054;2023-07-29T05:38:52;3.78;;;2.13;;
19446;SDS011;9862;49.462;11.054;2023-07-29T05:41:20;3.00;;;2.40;;
19446;SDS011;9862;49.462;11.054;2023-07-29T05:43:47;3.33;;;2.25;;
19446;SDS011;9862;49.462;11.054;2023-07-29T05:46:14;3.60;;;2.00;;
19446;SDS011;9862;49.462;11.054;2023-07-29T05:48:41;2.72;;;2.28;;
19446;SDS011;9862;49.462;11.054;2023-07-29T05:51:08;3.95;;;2.35;;
19446;SDS011;9862;49.462;11.054;2023-07-29T05:53:34;3.60;;;2.60;;
19446;SDS011;9862;49.462;11.054;2023-07-29T05:56:01;2.38;;;1.92;;
19446;SDS011;9862;49.462;11.054;2023-07-29T05:58:29;5.00;;;2.53;;
19446;SDS011;9862;49.462;11.054;2023-07-29T06:00:57;3.20;;;2.67;;
19446;SDS011;9862;49.462;11.054;2023-07-29T06:03:23;5.15;;;2.97;;
19446;SDS011;9862;49.462;11.054;2023-07-29T06:05:50;3.75;;;2.45;;
19446;SDS011;9862;49.462;11.054;2023-07-29T06:08:17;5.13;;;2.88;;
19446;SDS011;9862;49.462;11.054;2023-07-29T06:10:44;4.25;;;2.70;;
19446;SDS011;9862;49.462;11.054;2023-07-29T06:13:11;2.97;;;2.08;;
19446;SDS011;9862;49.462;11.054;2023-07-29T06:15:39;5.53;;;2.50;;
19446;SDS011;9862;49.462;11.054;2023-07-29T06:18:06;5.63;;;2.30;;
19446;SDS011;9862;49.462;11.054;2023-07-29T06:20:33;4.47;;;2.28;;
19446;SDS011;9862;49.462;11.054;2023-07-29T06:23:00;5.35;;;2.60;;
19446;SDS011;9862;49.462;11.054;2023-07-29T06:25:28;4.05;;;2.35;;
19446;SDS011;9862;49.462;11.054;2023-07-29T06:27:55;5.07;;;2.65;;
19446;SDS011;9862;49.462;11.054;2023-07-29T06:30:23;5.95;;;2.67;;
19446;SDS011;9862;49.462;11.054;2023-07-29T06:32:51;4.03;;;2.97;;
19446;SDS011;9862;49.462;11.054;2023-07-29T06:35:19;5.07;;;3.25;;
19446;SDS011;9862;49.462;11.054;2023-07-29T06:37:46;4.95;;;3.08;;
19446;SDS011;9862;49.462;11.054;2023-07-29T06:40:13;4.32;;;3.08;;
19446;SDS011;9862;49.462;11.054;2023-07-29T06:42:41;6.53;;;4.05;;
19446;SDS011;9862;49.462;11.054;2023-07-29T06:45:08;5.63;;;3.50;;
19446;SDS011;9862;49.462;11.054;2023-07-29T06:47:35;6.22;;;3.35;;
19446;SDS011;9862;49.462;11.054;2023-07-29T06:50:03;5.30;;;2.70;;
19446;SDS011;9862;49.462;11.054;2023-07-29T06:52:31;6.82;;;3.63;;
19446;SDS011;9862;49.462;11.054;2023-07-29T06:54:57;4.05;;;2.70;;
19446;SDS011;9862;49.462;11.054;2023-07-29T06:57:24;3.38;;;2.13;;
19446;SDS011;9862;49.462;11.054;2023-07-29T06:59:51;4.90;;;2.30;;
19446;SDS011;9862;49.462;11.054;2023-07-29T07:02:17;3.35;;;2.33;;
19446;SDS011;9862;49.462;11.054;2023-07-29T07:04:44;4.07;;;2.45;;
19446;SDS011;9862;49.462;11.054;2023-07-29T07:07:12;5.28;;;2.63;;
19446;SDS011;9862;49.462;11.054;2023-07-29T07:09:39;5.47;;;2.15;;
19446;SDS011;9862;49.462;11.054;2023-07-29T07:12:06;4.32;;;2.45;;
19446;SDS011;9862;49.462;11.054;2023-07-29T07:14:33;6.38;;;2.42;;
19446;SDS011;9862;49.462;11.054;2023-07-29T07:17:00;3.53;;;2.42;;
19446;SDS011;9862;49.462;11.054;2023-07-29T07:19:26;3.05;;;2.25;;
19446;SDS011;9862;49.462;11.054;2023-07-29T07:21:53;3.75;;;2.28;;
19446;SDS011;9862;49.462;11.054;2023-07-29T07:24:22;5.47;;;2.53;;
19446;SDS011;9862;49.462;11.054;2023-07-29T07:26:49;3.50;;;2.55;;
19446;SDS011;9862;49.462;11.054;2023-07-29T07:29:16;11.60;;;6.03;;
19446;SDS011;9862;49.462;11.054;2023-07-29T07:31:47;14.65;;;9.48;;
19446;SDS011;9862;49.462;11.054;2023-07-29T07:34:16;15.75;;;10.45;;
19446;SDS011;9862;49.462;11.054;2023-07-29T07:36:43;7.70;;;5.05;;
19446;SDS011;9862;49.462;11.054;2023-07-29T07:39:10;4.03;;;2.90;;
19446;SDS011;9862;49.462;11.054;2023-07-29T07:41:38;4.20;;;3.03;;
19446;SDS011;9862;49.462;11.054;2023-07-29T07:44:05;7.53;;;5.07;;
19446;SDS011;9862;49.462;11.054;2023-07-29T07:46:32;4.75;;;3.45;;
19446;SDS011;9862;49.462;11.054;2023-07-29T07:49:00;7.88;;;4.97;;
19446;SDS011;9862;49.462;11.054;2023-07-29T07:51:27;15.48;;;9.00;;
19446;SDS011;9862;49.462;11.054;2023-07-29T07:53:54;8.18;;;5.20;;
19446;SDS011;9862;49.462;11.054;2023-07-29T07:56:22;6.72;;;4.47;;
19446;SDS011;9862;49.462;11.054;2023-07-29T07:58:50;5.90;;;3.70;;
19446;SDS011;9862;49.462;11.054;2023-07-29T08:01:17;4.28;;;3.00;;
19446;SDS011;9862;49.462;11.054;2023-07-29T08:03:45;6.05;;;3.17;;
19446;SDS011;9862;49.462;11.054;2023-07-29T08:06:11;9.75;;;3.40;;
19446;SDS011;9862;49.462;11.054;2023-07-29T08:08:38;6.07;;;3.80;;
19446;SDS011;9862;49.462;11.054;2023-07-29T08:11:05;6.72;;;3.67;;
19446;SDS011;9862;49.462;11.054;2023-07-29T08:13:32;5.65;;;3.45;;
19446;SDS011;9862;49.462;11.054;2023-07-29T08:16:00;6.38;;;4.20;;
19446;SDS011;9862;49.462;11.054;2023-07-29T08:18:27;11.02;;;5.45;;
19446;SDS011;9862;49.462;11.054;2023-07-29T08:20:53;9.07;;;4.65;;
19446;SDS011;9862;49.462;11.054;2023-07-29T08:23:24;16.92;;;9.10;;
19446;SDS011;9862;49.462;11.054;2023-07-29T08:25:51;6.80;;;3.70;;
19446;SDS011;9862;49.462;11.054;2023-07-29T08:28:19;6.00;;;3.28;;
19446;SDS011;9862;49.462;11.054;2023-07-29T08:30:46;8.55;;;3.60;;
19446;SDS011;9862;49.462;11.054;2023-07-29T08:33:15;7.85;;;4.60;;
19446;SDS011;9862;49.462;11.054;2023-07-29T08:35:42;10.20;;;7.28;;
19446;SDS011;9862;49.462;11.054;2023-07-29T08:38:09;6.30;;;4.55;;
19446;SDS011;9862;49.462;11.054;2023-07-29T08:40:37;6.40;;;4.63;;
19446;SDS011;9862;49.462;11.054;2023-07-29T08:43:09;5.85;;;4.22;;
19446;SDS011;9862;49.462;11.054;2023-07-29T08:45:37;6.07;;;3.88;;
19446;SDS011;9862;49.462;11.054;2023-07-29T08:48:07;4.68;;;3.58;;
19446;SDS011;9862;49.462;11.054;2023-07-29T08:50:36;5.28;;;3.30;;
19446;SDS011;9862;49.462;11.054;2023-07-29T08:53:04;4.85;;;3.08;;
19446;SDS011;9862;49.462;11.054;2023-07-29T08:55:31;4.75;;;2.67;;
19446;SDS011;9862;49.462;11.054;2023-07-29T08:57:59;2.42;;;1.98;;
19446;SDS011;9862;49.462;11.054;2023-07-29T09:00:27;3.95;;;2.20;;
19446;SDS011;9862;49.462;11.054;2023-07-29T09:02:54;2.70;;;1.75;;
19446;SDS011;9862;49.462;11.054;2023-07-29T09:05:23;3.63;;;1.90;;
19446;SDS011;9862;49.462;11.054;2023-07-29T09:07:52;3.05;;;1.77;;
19446;SDS011;9862;49.462;11.054;2023-07-29T09:10:22;3.92;;;2.00;;
19446;SDS011;9862;49.462;11.054;2023-07-29T09:12:55;3.25;;;1.50;;
19446;SDS011;9862;49.462;11.054;2023-07-29T09:15:28;3.38;;;2.33;;
19446;SDS011;9862;49.462;11.054;2023-07-29T09:17:56;3.80;;;2.30;;
19446;SDS011;9862;49.462;11.054;2023-07-29T09:20:24;2.97;;;2.30;;
19446;SDS011;9862;49.462;11.054;2023-07-29T09:22:53;4.13;;;2.70;;
19446;SDS011;9862;49.462;11.054;2023-07-29T09:25:24;4.88;;;2.80;;
19446;SDS011;9862;49.462;11.054;2023-07-29T09:27:52;6.35;;;3.20;;
19446;SDS011;9862;49.462;11.054;2023-07-29T09:30:18;3.38;;;2.47;;
19446;SDS011;9862;49.462;11.054;2023-07-29T09:32:45;5.32;;;2.92;;
19446;SDS011;9862;49.462;11.054;2023-07-29T09:35:12;5.50;;;3.65;;
19446;SDS011;9862;49.462;11.054;2023-07-29T09:37:39;4.55;;;2.80;;
19446;SDS011;9862;49.462;11.054;2023-07-29T09:40:12;3.35;;;2.50;;
19446;SDS011;9862;49.462;11.054;2023-07-29T09:42:47;12.27;;;3.70;;
19446;SDS011;9862;49.462;11.054;2023-07-29T09:45:20;6.32;;;2.58;;
19446;SDS011;9862;49.462;11.054;2023-07-29T09:47:48;3.28;;;2.10;;
19446;SDS011;9862;49.462;11.054;2023-07-29T09:50:17;4.15;;;2.60;;
19446;SDS011;9862;49.462;11.054;2023-07-29T09:52:44;4.05;;;2.58;;
19446;SDS011;9862;49.462;11.054;2023-07-29T09:55:13;3.60;;;2.20;;
19446;SDS011;9862;49.462;11.054;2023-07-29T09:57:43;3.63;;;2.47;;
19446;SDS011;9862;49.462;11.054;2023-07-29T10:00:10;4.28;;;2.70;;
19446;SDS011;9862;49.462;11.054;2023-07-29T10:02:39;4.80;;;3.13;;
19446;SDS011;9862;49.462;11.054;2023-07-29T10:05:06;5.65;;;3.63;;
19446;SDS011;9862;49.462;11.054;2023-07-29T10:07:35;5.38;;;3.65;;
19446;SDS011;9862;49.462;11.054;2023-07-29T10:10:06;5.93;;;4.78;;
19446;SDS011;9862;49.462;11.054;2023-07-29T10:12:35;8.43;;;4.10;;
19446;SDS011;9862;49.462;11.054;2023-07-29T10:15:03;5.50;;;3.95;;
19446;SDS011;9862;49.462;11.054;2023-07-29T10:17:33;8.30;;;4.45;;
19446;SDS011;9862;49.462;11.054;2023-07-29T10:20:03;5.57;;;4.00;;
19446;SDS011;9862;49.462;11.054;2023-07-29T10:22:33;5.50;;;4.38;;
19446;SDS011;9862;49.462;11.054;2023-07-29T10:25:03;5.20;;;4.05;;
19446;SDS011;9862;49.462;11.054;2023-07-29T10:27:33;5.07;;;3.67;;
19446;SDS011;9862;49.462;11.054;2023-07-29T10:30:08;4.05;;;3.63;;
19446;SDS011;9862;49.462;11.054;2023-07-29T10:32:37;5.60;;;3.65;;
19446;SDS011;9862;49.462;11.054;2023-07-29T10:35:05;5.65;;;3.88;;
19446;SDS011;9862;49.462;11.054;2023-07-29T10:37:32;6.15;;;3.72;;
19446;SDS011;9862;49.462;11.054;2023-07-29T10:39:59;4.75;;;3.58;;
19446;SDS011;9862;49.462;11.054;2023-07-29T10:42:26;4.18;;;3.15;;
19446;SDS011;9862;49.462;11.054;2023-07-29T10:44:54;5.05;;;3.22;;
19446;SDS011;9862;49.462;11.054;2023-07-29T10:47:22;4.43;;;3.40;;
19446;SDS011;9862;49.462;11.054;2023-07-29T10:49:51;5.40;;;3.53;;
19446;SDS011;9862;49.462;11.054;2023-07-29T10:52:29;4.80;;;2.47;;
19446;SDS011;9862;49.462;11.054;2023-07-29T10:54:58;4.57;;;2.90;;
19446;SDS011;9862;49.462;11.054;2023-07-29T10:57:30;3.40;;;2.55;;
19446;SDS011;9862;49.462;11.054;2023-07-29T11:00:00;3.20;;;2.20;;
19446;SDS011;9862;49.462;11.054;2023-07-29T11:02:30;3.50;;;2.30;;
19446;SDS011;9862;49.462;11.054;2023-07-29T11:04:58;7.32;;;2.53;;
19446;SDS011;9862;49.462;11.054;2023-07-29T11:07:26;3.47;;;2.40;;
19446;SDS011;9862;49.462;11.054;2023-07-29T11:10:00;2.97;;;1.80;;
19446;SDS011;9862;49.462;11.054;2023-07-29T11:12:34;2.40;;;1.67;;
19446;SDS011;9862;49.462;11.054;2023-07-29T11:15:16;3.65;;;2.25;;
19446;SDS011;9862;49.462;11.054;2023-07-29T11:17:45;2.40;;;1.90;;
19446;SDS011;9862;49.462;11.054;2023-07-29T11:20:14;2.92;;;1.90;;
19446;SDS011;9862;49.462;11.054;2023-07-29T11:22:43;3.78;;;1.75;;
19446;SDS011;9862;49.462;11.054;2023-07-29T11:25:11;3.28;;;1.80;;
19446;SDS011;9862;49.462;11.054;2023-07-29T11:27:38;4.38;;;2.60;;
19446;SDS011;9862;49.462;11.054;2023-07-29T11:30:06;3.13;;;2.15;;
19446;SDS011;9862;49.462;11.054;2023-07-29T11:32:36;2.33;;;1.90;;
19446;SDS011;9862;49.462;11.054;2023-07-29T11:35:04;3.13;;;1.90;;
19446;SDS011;9862;49.462;11.054;2023-07-29T11:37:33;2.17;;;1.80;;
19446;SDS011;9862;49.462;11.054;2023-07-29T11:40:01;4.63;;;1.70;;
19446;SDS011;9862;49.462;11.054;2023-07-29T11:42:28;3.83;;;2.28;;
19446;SDS011;9862;49.462;11.054;2023-07-29T11:44:58;3.78;;;1.90;;
19446;SDS011;9862;49.462;11.054;2023-07-29T11:47:25;4.25;;;2.38;;
19446;SDS011;9862;49.462;11.054;2023-07-29T11:49:53;2.25;;;1.95;;
19446;SDS011;9862;49.462;11.054;2023-07-29T11:52:21;4.43;;;1.70;;
19446;SDS011;9862;49.462;11.054;2023-07-29T11:54:48;2.67;;;1.80;;
19446;SDS011;9862;49.462;11.054;2023-07-29T11:57:16;2.13;;;1.60;;
19446;SDS011;9862;49.462;11.054;2023-07-29T11:59:44;2.17;;;1.90;;
19446;SDS011;9862;49.462;11.054;2023-07-29T12:02:12;2.28;;;1.95;;
19446;SDS011;9862;49.462;11.054;2023-07-29T12:04:41;2.60;;;1.85;;
19446;SDS011;9862;49.462;11.054;2023-07-29T12:07:10;2.22;;;2.00;;
19446;SDS011;9862;49.462;11.054;2023-07-29T12:09:39;2.17;;;1.98;;
19446;SDS011;9862;49.462;11.054;2023-07-29T12:12:07;2.63;;;2.20;;
19446;SDS011;9862;49.462;11.054;2023-07-29T12:14:35;2.67;;;2.05;;
19446;SDS011;9862;49.462;11.054;2023-07-29T12:17:02;2.10;;;1.80;;
19446;SDS011;9862;49.462;11.054;2023-07-29T12:19:33;2.33;;;1.80;;
19446;SDS011;9862;49.462;11.054;2023-07-29T12:22:01;2.00;;;1.80;;
19446;SDS011;9862;49.462;11.054;2023-07-29T12:24:30;3.15;;;2.00;;
19446;SDS011;9862;49.462;11.054;2023-07-29T12:26:57;2.40;;;1.67;;
19446;SDS011;9862;49.462;11.054;2023-07-29T12:29:25;2.30;;;2.10;;
19446;SDS011;9862;49.462;11.054;2023-07-29T12:31:57;2.47;;;1.77;;
19446;SDS011;9862;49.462;11.054;2023-07-29T12:34:28;2.47;;;2.10;;
19446;SDS011;9862;49.462;11.054;2023-07-29T12:36:56;2.75;;;1.85;;
19446;SDS011;9862;49.462;11.054;2023-07-29T12:39:25;2.58;;;1.80;;
19446;SDS011;9862;49.462;11.054;2023-07-29T12:41:54;2.70;;;2.05;;
19446;SDS011;9862;49.462;11.054;2023-07-29T12:44:23;2.15;;;1.95;;
19446;SDS011;9862;49.462;11.054;2023-07-29T12:46:51;3.22;;;1.92;;
19446;SDS011;9862;49.462;11.054;2023-07-29T12:49:18;2.60;;;1.98;;
19446;SDS011;9862;49.462;11.054;2023-07-29T12:51:46;4.93;;;1.80;;
19446;SDS011;9862;49.462;11.054;2023-07-29T12:54:14;2.10;;;1.65;;
19446;SDS011;9862;49.462;11.054;2023-07-29T12:56:40;2.22;;;1.63;;
19446;SDS011;9862;49.462;11.054;2023-07-29T12:59:08;2.03;;;1.80;;
19446;SDS011;9862;49.462;11.054;2023-07-29T13:01:35;3.58;;;2.10;;
19446;SDS011;9862;49.462;11.054;2023-07-29T13:04:03;2.15;;;1.77;;
19446;SDS011;9862;49.462;11.054;2023-07-29T13:06:30;2.40;;;2.20;;
19446;SDS011;9862;49.462;11.054;2023-07-29T13:08:56;2.28;;;1.60;;
19446;SDS011;9862;49.462;11.054;2023-07-29T13:11:23;5.45;;;1.98;;
19446;SDS011;9862;49.462;11.054;2023-07-29T13:13:50;3.38;;;2.10;;
19446;SDS011;9862;49.462;11.054;2023-07-29T13:16:18;2.25;;;1.92;;
19446;SDS011;9862;49.462;11.054;2023-07-29T13:18:45;2.58;;;2.25;;
19446;SDS011;9862;49.462;11.054;2023-07-29T13:21:12;3.45;;;1.95;;
19446;SDS011;9862;49.462;11.054;2023-07-29T13:23:39;1.50;;;1.40;;
19446;SDS011;9862;49.462;11.054;2023-07-29T13:26:06;2.75;;;1.92;;
19446;SDS011;9862;49.462;11.054;2023-07-29T13:28:35;2.70;;;1.60;;
19446;SDS011;9862;49.462;11.054;2023-07-29T13:31:03;2.28;;;1.70;;
19446;SDS011;9862;49.462;11.054;2023-07-29T13:33:31;1.48;;;1.35;;
19446;SDS011;9862;49.462;11.054;2023-07-29T13:35:59;2.05;;;1.60;;
19446;SDS011;9862;49.462;11.054;2023-07-29T13:38:27;2.05;;;1.48;;
19446;SDS011;9862;49.462;11.054;2023-07-29T13:40:54;1.65;;;1.55;;
19446;SDS011;9862;49.462;11.054;2023-07-29T13:43:21;1.75;;;1.33;;
19446;SDS011;9862;49.462;11.054;2023-07-29T13:45:48;2.17;;;1.60;;
19446;SDS011;9862;49.462;11.054;2023-07-29T13:48:15;3.90;;;1.60;;
19446;SDS011;9862;49.462;11.054;2023-07-29T13:50:44;3.08;;;1.73;;
19446;SDS011;9862;49.462;11.054;2023-07-29T13:53:11;1.95;;;1.48;;
19446;SDS011;9862;49.462;11.054;2023-07-29T13:55:39;1.92;;;1.60;;
19446;SDS011;9862;49.462;11.054;2023-07-29T13:58:05;3.33;;;1.52;;
19446;SDS011;9862;49.462;11.054;2023-07-29T14:00:32;2.03;;;1.70;;
19446;SDS011;9862;49.462;11.054;2023-07-29T14:02:59;2.13;;;1.77;;
19446;SDS011;9862;49.462;11.054;2023-07-29T14:05:26;3.53;;;1.80;;
19446;SDS011;9862;49.462;11.054;2023-07-29T14:07:54;1.70;;;1.48;;
19446;SDS011;9862;49.462;11.054;2023-07-29T14:10:22;2.00;;;1.50;;
19446;SDS011;9862;49.462;11.054;2023-07-29T14:12:49;2.50;;;1.70;;
19446;SDS011;9862;49.462;11.054;2023-07-29T14:15:16;2.88;;;1.48;;
19446;SDS011;9862;49.462;11.054;2023-07-29T14:17:44;1.65;;;1.40;;
19446;SDS011;9862;49.462;11.054;2023-07-29T14:20:12;1.80;;;1.55;;
19446;SDS011;9862;49.462;11.054;2023-07-29T14:22:40;1.60;;;1.20;;
19446;SDS011;9862;49.462;11.054;2023-07-29T14:25:08;1.35;;;1.25;;
19446;SDS011;9862;49.462;11.054;2023-07-29T14:27:35;1.25;;;1.00;;
19446;SDS011;9862;49.462;11.054;2023-07-29T14:30:03;2.33;;;1.20;;
19446;SDS011;9862;49.462;11.054;2023-07-29T14:32:31;1.38;;;1.02;;
19446;SDS011;9862;49.462;11.054;2023-07-29T14:34:58;1.75;;;1.10;;
19446;SDS011;9862;49.462;11.054;2023-07-29T14:37:25;2.47;;;1.25;;
19446;SDS011;9862;49.462;11.054;2023-07-29T14:39:52;2.35;;;1.23;;
19446;SDS011;9862;49.462;11.054;2023-07-29T14:42:21;2.92;;;1.50;;
19446;SDS011;9862;49.462;11.054;2023-07-29T14:44:49;1.58;;;1.48;;
19446;SDS011;9862;49.462;11.054;2023-07-29T14:47:16;1.27;;;1.10;;
19446;SDS011;9862;49.462;11.054;2023-07-29T14:49:43;1.08;;;0.98;;
19446;SDS011;9862;49.462;11.054;2023-07-29T14:52:10;1.48;;;1.27;;